sensor_id;sensor_type;location;lat;lon;timestamp;pressure;altitude;pressure_sealevel;temperature;humidity
34081;BME280;20358;50.272;19.026;2023-09-12T00:02:04;98015.22;;;23.17;63.08
34081;BME280;20358;50.272;19.026;2023-09-12T00:05:14;98017.72;;;23.10;63.30
34081;BME280;20358;50.272;19.026;2023-09-12T00:08:20;98016.16;;;23.00;63.86
34081;BME280;20358;50.272;19.026;2023-09-12T00:11:27;98015.31;;;22.99;63.42
34081;BME280;20358;50.272;19.026;2023-09-12T00:14:33;98007.19;;;23.01;63.62
34081;BME280;20358;50.272;19.026;2023-09-12T00:17:41;98019.00;;;22.98;63.44
34081;BME280;20358;50.272;19.026;2023-09-12T00:20:50;98006.66;;;22.97;63.19
34081;BME280;20358;50.272;19.026;2023-09-12T00:23:58;98014.81;;;22.96;63.44
34081;BME280;20358;50.272;19.026;2023-09-12T00:27:05;98015.16;;;22.93;63.54
34081;BME280;20358;50.272;19.026;2023-09-12T00:30:14;98013.47;;;22.92;63.73
34081;BME280;20358;50.272;19.026;2023-09-12T00:33:21;98016.44;;;22.89;63.66
34081;BME280;20358;50.272;19.026;2023-09-12T00:36:31;98011.59;;;22.84;63.71
34081;BME280;20358;50.272;19.026;2023-09-12T00:39:40;98007.75;;;22.78;63.68
34081;BME280;20358;50.272;19.026;2023-09-12T00:42:47;98014.22;;;22.76;64.19
34081;BME280;20358;50.272;19.026;2023-09-12T00:45:53;98010.72;;;22.75;63.96
34081;BME280;20358;50.272;19.026;2023-09-12T00:49:04;98010.06;;;22.73;64.12
34081;BME280;20358;50.272;19.026;2023-09-12T00:52:18;98010.38;;;22.70;64.11
34081;BME280;20358;50.272;19.026;2023-09-12T00:55:28;98007.03;;;22.68;64.19
34081;BME280;20358;50.272;19.026;2023-09-12T00:58:37;98012.38;;;22.68;63.98
34081;BME280;20358;50.272;19.026;2023-09-12T01:01:45;98016.00;;;22.67;64.27
34081;BME280;20358;50.272;19.026;2023-09-12T01:04:53;98017.03;;;22.66;64.35
34081;BME280;20358;50.272;19.026;2023-09-12T01:08:05;98012.38;;;22.68;64.12
34081;BME280;20358;50.272;19.026;2023-09-12T01:11:13;98017.03;;;22.66;64.40
34081;BME280;20358;50.272;19.026;2023-09-12T01:14:20;98011.03;;;22.64;64.65
34081;BME280;20358;50.272;19.026;2023-09-12T01:17:27;98018.59;;;22.59;64.97
34081;BME280;20358;50.272;19.026;2023-09-12T01:20:37;98011.94;;;22.55;65.30
34081;BME280;20358;50.272;19.026;2023-09-12T01:24:05;98006.91;;;22.52;65.33
34081;BME280;20358;50.272;19.026;2023-09-12T01:27:40;98019.88;;;22.47;65.43
34081;BME280;20358;50.272;19.026;2023-09-12T01:30:52;98017.81;;;22.41;66.11
34081;BME280;20358;50.272;19.026;2023-09-12T01:34:08;98015.50;;;22.38;66.27
34081;BME280;20358;50.272;19.026;2023-09-12T01:37:16;98012.13;;;22.36;66.28
34081;BME280;20358;50.272;19.026;2023-09-12T01:40:31;98005.09;;;22.27;66.38
34081;BME280;20358;50.272;19.026;2023-09-12T01:43:44;98017.03;;;22.23;66.49
34081;BME280;20358;50.272;19.026;2023-09-12T01:46:52;98014.84;;;22.18;66.47
34081;BME280;20358;50.272;19.026;2023-09-12T01:50:01;98021.03;;;22.19;66.49
34081;BME280;20358;50.272;19.026;2023-09-12T01:53:08;98019.03;;;22.21;66.15
34081;BME280;20358;50.272;19.026;2023-09-12T01:56:19;98013.72;;;22.21;66.05
34081;BME280;20358;50.272;19.026;2023-09-12T01:59:29;98013.72;;;22.21;65.50
34081;BME280;20358;50.272;19.026;2023-09-12T02:02:37;98010.38;;;22.19;65.71
34081;BME280;20358;50.272;19.026;2023-09-12T02:05:44;98008.69;;;22.18;65.55
34081;BME280;20358;50.272;19.026;2023-09-12T02:08:51;98016.00;;;22.16;65.44
34081;BME280;20358;50.272;19.026;2023-09-12T02:11:57;98012.97;;;22.11;65.93
34081;BME280;20358;50.272;19.026;2023-09-12T02:15:09;98015.28;;;22.06;66.19
34081;BME280;20358;50.272;19.026;2023-09-12T02:18:16;98021.56;;;22.05;66.17
34081;BME280;20358;50.272;19.026;2023-09-12T02:21:27;98011.09;;;22.03;66.06
34081;BME280;20358;50.272;19.026;2023-09-12T02:24:34;98008.91;;;21.99;66.43
34081;BME280;20358;50.272;19.026;2023-09-12T02:27:41;98013.22;;;22.00;66.07
34081;BME280;20358;50.272;19.026;2023-09-12T02:30:50;98014.22;;;21.99;65.80
34081;BME280;20358;50.272;19.026;2023-09-12T02:33:57;98010.19;;;21.95;66.03
34081;BME280;20358;50.272;19.026;2023-09-12T02:37:05;98012.84;;;21.95;65.72
34081;BME280;20358;50.272;19.026;2023-09-12T02:40:12;98014.53;;;21.96;65.75
34081;BME280;20358;50.272;19.026;2023-09-12T02:43:18;98017.88;;;21.98;65.85
34081;BME280;20358;50.272;19.026;2023-09-12T02:46:28;98022.22;;;21.99;65.96
34081;BME280;20358;50.272;19.026;2023-09-12T02:49:35;98022.22;;;21.99;65.99
34081;BME280;20358;50.272;19.026;2023-09-12T02:52:43;98017.56;;;22.01;65.72
34081;BME280;20358;50.272;19.026;2023-09-12T02:55:49;98017.88;;;21.98;65.55
34081;BME280;20358;50.272;19.026;2023-09-12T02:58:58;98011.69;;;21.97;65.81
34081;BME280;20358;50.272;19.026;2023-09-12T03:02:07;98013.69;;;21.95;65.67
34081;BME280;20358;50.272;19.026;2023-09-12T03:05:14;98013.19;;;21.92;65.56
34081;BME280;20358;50.272;19.026;2023-09-12T03:08:21;98013.47;;;21.89;65.79
34081;BME280;20358;50.272;19.026;2023-09-12T03:11:28;98014.06;;;21.83;66.06
34081;BME280;20358;50.272;19.026;2023-09-12T03:14:37;98013.09;;;21.84;65.57
34081;BME280;20358;50.272;19.026;2023-09-12T03:17:47;98021.06;;;21.84;65.79
34081;BME280;20358;50.272;19.026;2023-09-12T03:20:57;98023.03;;;21.82;65.41
34081;BME280;20358;50.272;19.026;2023-09-12T03:24:06;98024.03;;;21.81;65.68
34081;BME280;20358;50.272;19.026;2023-09-12T03:27:13;98026.69;;;21.81;66.14
34081;BME280;20358;50.272;19.026;2023-09-12T03:30:20;98016.34;;;21.78;65.54
34081;BME280;20358;50.272;19.026;2023-09-12T03:33:30;98017.50;;;21.75;65.87
34081;BME280;20358;50.272;19.026;2023-09-12T03:36:41;98009.66;;;21.74;65.58
34081;BME280;20358;50.272;19.026;2023-09-12T03:39:48;98018.63;;;21.73;65.77
34081;BME280;20358;50.272;19.026;2023-09-12T03:42:55;98014.16;;;21.73;65.75
34081;BME280;20358;50.272;19.026;2023-09-12T03:46:03;98011.50;;;21.73;65.73
34081;BME280;20358;50.272;19.026;2023-09-12T03:49:13;98010.66;;;21.73;65.64
34081;BME280;20358;50.272;19.026;2023-09-12T03:52:20;98013.31;;;21.73;65.93
34081;BME280;20358;50.272;19.026;2023-09-12T03:55:27;98021.59;;;21.70;65.72
34081;BME280;20358;50.272;19.026;2023-09-12T03:58:37;98019.91;;;21.69;65.68
34081;BME280;20358;50.272;19.026;2023-09-12T04:01:46;98020.91;;;21.68;65.54
34081;BME280;20358;50.272;19.026;2023-09-12T04:04:55;98023.88;;;21.64;65.70
34081;BME280;20358;50.272;19.026;2023-09-12T04:08:05;98019.53;;;21.63;65.56
34081;BME280;20358;50.272;19.026;2023-09-12T04:11:12;98021.81;;;21.58;65.59
34081;BME280;20358;50.272;19.026;2023-09-12T04:14:22;98020.16;;;21.57;65.65
34081;BME280;20358;50.272;19.026;2023-09-12T04:17:28;98023.13;;;21.54;65.58
34081;BME280;20358;50.272;19.026;2023-09-12T04:20:38;98022.44;;;21.52;65.16
34081;BME280;20358;50.272;19.026;2023-09-12T04:23:45;98024.38;;;21.50;65.49
34081;BME280;20358;50.272;19.026;2023-09-12T04:26:54;98027.38;;;21.47;65.03
34081;BME280;20358;50.272;19.026;2023-09-12T04:30:00;98026.66;;;21.45;65.53
34081;BME280;20358;50.272;19.026;2023-09-12T04:33:08;98030.63;;;21.41;65.33
34081;BME280;20358;50.272;19.026;2023-09-12T04:36:18;98030.09;;;21.38;65.36
34081;BME280;20358;50.272;19.026;2023-09-12T04:39:25;98024.94;;;21.36;65.71
34081;BME280;20358;50.272;19.026;2023-09-12T04:42:33;98030.94;;;21.38;65.52
34081;BME280;20358;50.272;19.026;2023-09-12T04:45:41;98035.28;;;21.39;65.53
34081;BME280;20358;50.272;19.026;2023-09-12T04:48:49;98033.13;;;21.43;65.53
34081;BME280;20358;50.272;19.026;2023-09-12T04:51:58;98037.00;;;21.48;65.46
34081;BME280;20358;50.272;19.026;2023-09-12T04:55:07;98037.69;;;21.50;65.32
34081;BME280;20358;50.272;19.026;2023-09-12T04:58:15;98034.59;;;21.55;65.31
34081;BME280;20358;50.272;19.026;2023-09-12T05:01:23;98034.31;;;21.58;65.60
34081;BME280;20358;50.272;19.026;2023-09-12T05:04:30;98036.88;;;21.68;65.45
34081;BME280;20358;50.272;19.026;2023-09-12T05:07:39;98041.28;;;21.77;65.48
34081;BME280;20358;50.272;19.026;2023-09-12T05:10:47;98049.06;;;21.88;65.25
34081;BME280;20358;50.272;19.026;2023-09-12T05:13:53;98048.16;;;21.97;65.15
34081;BME280;20358;50.272;19.026;2023-09-12T05:17:03;98050.03;;;22.04;65.04
34081;BME280;20358;50.272;19.026;2023-09-12T05:20:10;98052.63;;;22.14;65.04
34081;BME280;20358;50.272;19.026;2023-09-12T05:23:20;98055.34;;;22.22;64.43
34081;BME280;20358;50.272;19.026;2023-09-12T05:26:26;98046.75;;;22.28;64.33
34081;BME280;20358;50.272;19.026;2023-09-12T05:29:33;98053.09;;;22.35;64.10
34081;BME280;20358;50.272;19.026;2023-09-12T05:32:41;98052.47;;;22.41;64.21
34081;BME280;20358;50.272;19.026;2023-09-12T05:35:50;98056.03;;;22.50;63.83
34081;BME280;20358;50.272;19.026;2023-09-12T05:38:59;98048.56;;;22.53;63.63
34081;BME280;20358;50.272;19.026;2023-09-12T05:42:09;98051.13;;;22.63;63.75
34081;BME280;20358;50.272;19.026;2023-09-12T05:45:16;98053.00;;;22.70;63.42
34081;BME280;20358;50.272;19.026;2023-09-12T05:48:23;98046.75;;;22.79;63.53
34081;BME280;20358;50.272;19.026;2023-09-12T05:51:30;98047.59;;;22.88;63.34
34081;BME280;20358;50.272;19.026;2023-09-12T05:54:39;98044.94;;;22.88;62.88
34081;BME280;20358;50.272;19.026;2023-09-12T05:57:47;98054.84;;;23.04;62.83
34081;BME280;20358;50.272;19.026;2023-09-12T06:00:57;98052.88;;;23.14;62.77
34081;BME280;20358;50.272;19.026;2023-09-12T06:04:05;98054.28;;;23.26;62.66
34081;BME280;20358;50.272;19.026;2023-09-12T06:07:13;98060.31;;;23.36;62.14
34081;BME280;20358;50.272;19.026;2023-09-12T06:10:24;98056.00;;;23.43;62.34
34081;BME280;20358;50.272;19.026;2023-09-12T06:13:31;98066.06;;;23.57;62.32
34081;BME280;20358;50.272;19.026;2023-09-12T06:16:40;98065.75;;;23.68;61.71
34081;BME280;20358;50.272;19.026;2023-09-12T06:19:47;98060.75;;;23.81;61.62
34081;BME280;20358;50.272;19.026;2023-09-12T06:22:54;98066.09;;;23.89;61.63
34081;BME280;20358;50.272;19.026;2023-09-12T06:26:06;98070.13;;;24.01;61.49
34081;BME280;20358;50.272;19.026;2023-09-12T06:29:13;98065.81;;;24.17;60.96
34081;BME280;20358;50.272;19.026;2023-09-12T06:32:20;98064.13;;;24.32;60.77
34081;BME280;20358;50.272;19.026;2023-09-12T06:35:26;98062.78;;;24.44;59.94
34081;BME280;20358;50.272;19.026;2023-09-12T06:38:33;98064.78;;;24.58;59.42
34081;BME280;20358;50.272;19.026;2023-09-12T06:41:42;98066.09;;;24.78;58.86
34081;BME280;20358;50.272;19.026;2023-09-12T06:44:49;98068.19;;;24.99;57.89
34081;BME280;20358;50.272;19.026;2023-09-12T06:47:56;98065.97;;;25.18;57.24
34081;BME280;20358;50.272;19.026;2023-09-12T06:51:06;98066.75;;;25.27;56.96
34081;BME280;20358;50.272;19.026;2023-09-12T06:54:18;98068.19;;;25.38;56.75
34081;BME280;20358;50.272;19.026;2023-09-12T06:57:29;98073.00;;;25.50;56.58
34081;BME280;20358;50.272;19.026;2023-09-12T07:00:35;98073.50;;;25.54;56.53
34081;BME280;20358;50.272;19.026;2023-09-12T07:03:43;98071.13;;;25.59;56.54
34081;BME280;20358;50.272;19.026;2023-09-12T07:06:49;98068.59;;;25.65;56.14
34081;BME280;20358;50.272;19.026;2023-09-12T07:09:57;98075.56;;;25.74;55.18
34081;BME280;20358;50.272;19.026;2023-09-12T07:13:27;98075.91;;;25.94;54.76
34081;BME280;20358;50.272;19.026;2023-09-12T07:16:34;98072.66;;;26.07;54.94
34081;BME280;20358;50.272;19.026;2023-09-12T07:19:40;98073.72;;;26.20;54.52
34081;BME280;20358;50.272;19.026;2023-09-12T07:22:47;98066.66;;;26.27;54.31
34081;BME280;20358;50.272;19.026;2023-09-12T07:25:54;98071.03;;;26.43;53.61
34081;BME280;20358;50.272;19.026;2023-09-12T07:29:08;98072.44;;;26.54;54.09
34081;BME280;20358;50.272;19.026;2023-09-12T07:32:15;98067.16;;;26.60;54.03
34081;BME280;20358;50.272;19.026;2023-09-12T07:35:23;98082.34;;;26.68;54.16
34081;BME280;20358;50.272;19.026;2023-09-12T07:38:29;98073.25;;;26.77;52.50
34081;BME280;20358;50.272;19.026;2023-09-12T07:41:39;98068.81;;;26.84;53.53
34081;BME280;20358;50.272;19.026;2023-09-12T07:44:47;98072.97;;;26.86;53.13
34081;BME280;20358;50.272;19.026;2023-09-12T07:47:54;98074.72;;;26.94;52.66
34081;BME280;20358;50.272;19.026;2023-09-12T07:51:12;98071.94;;;27.02;52.87
34081;BME280;20358;50.272;19.026;2023-09-12T07:54:21;98071.59;;;27.05;51.52
34081;BME280;20358;50.272;19.026;2023-09-12T07:57:29;98072.13;;;27.15;52.43
34081;BME280;20358;50.272;19.026;2023-09-12T08:00:39;98078.78;;;27.19;51.18
34081;BME280;20358;50.272;19.026;2023-09-12T08:03:46;98072.88;;;27.24;52.40
34081;BME280;20358;50.272;19.026;2023-09-12T08:06:53;98072.94;;;27.30;50.92
34081;BME280;20358;50.272;19.026;2023-09-12T08:10:04;98069.53;;;27.36;51.85
34081;BME280;20358;50.272;19.026;2023-09-12T08:13:12;98067.13;;;27.41;51.42
34081;BME280;20358;50.272;19.026;2023-09-12T08:16:21;98070.72;;;27.48;50.41
34081;BME280;20358;50.272;19.026;2023-09-12T08:19:28;98068.94;;;27.55;49.78
34081;BME280;20358;50.272;19.026;2023-09-12T08:22:35;98068.81;;;27.63;51.28
34081;BME280;20358;50.272;19.026;2023-09-12T08:25:42;98072.81;;;27.67;51.57
34081;BME280;20358;50.272;19.026;2023-09-12T08:28:50;98072.41;;;27.70;51.69
34081;BME280;20358;50.272;19.026;2023-09-12T08:32:01;98072.88;;;27.74;50.29
34081;BME280;20358;50.272;19.026;2023-09-12T08:35:08;98076.66;;;27.80;50.11
34081;BME280;20358;50.272;19.026;2023-09-12T08:38:18;98074.88;;;27.87;49.99
34081;BME280;20358;50.272;19.026;2023-09-12T08:41:24;98079.09;;;27.96;49.15
34081;BME280;20358;50.272;19.026;2023-09-12T08:44:31;98068.63;;;28.01;48.60
34081;BME280;20358;50.272;19.026;2023-09-12T08:47:42;98074.91;;;28.08;48.36
34081;BME280;20358;50.272;19.026;2023-09-12T08:50:53;98074.16;;;28.14;48.13
34081;BME280;20358;50.272;19.026;2023-09-12T08:54:00;98074.41;;;28.19;48.01
34081;BME280;20358;50.272;19.026;2023-09-12T08:57:11;98070.28;;;28.23;47.14
34081;BME280;20358;50.272;19.026;2023-09-12T09:00:19;98068.88;;;28.27;46.78
34081;BME280;20358;50.272;19.026;2023-09-12T09:03:31;98073.22;;;28.28;46.71
34081;BME280;20358;50.272;19.026;2023-09-12T09:06:41;98070.16;;;28.31;46.28
34081;BME280;20358;50.272;19.026;2023-09-12T09:09:49;98073.47;;;28.33;46.36
34081;BME280;20358;50.272;19.026;2023-09-12T09:12:56;98069.38;;;28.37;46.46
34081;BME280;20358;50.272;19.026;2023-09-12T09:16:13;98068.16;;;28.40;46.51
34081;BME280;20358;50.272;19.026;2023-09-12T09:19:40;98064.88;;;28.44;46.13
34081;BME280;20358;50.272;19.026;2023-09-12T09:22:57;98059.13;;;28.47;46.32
34081;BME280;20358;50.272;19.026;2023-09-12T09:26:08;98052.97;;;28.53;45.84
34081;BME280;20358;50.272;19.026;2023-09-12T09:29:16;98059.59;;;28.57;45.47
34081;BME280;20358;50.272;19.026;2023-09-12T09:32:24;98050.97;;;28.62;45.59
34081;BME280;20358;50.272;19.026;2023-09-12T09:35:34;98055.78;;;28.66;45.67
34081;BME280;20358;50.272;19.026;2023-09-12T09:38:41;98058.91;;;28.70;45.31
34081;BME280;20358;50.272;19.026;2023-09-12T09:41:51;98059.34;;;28.73;44.97
34081;BME280;20358;50.272;19.026;2023-09-12T09:45:00;98055.22;;;28.77;45.26
34081;BME280;20358;50.272;19.026;2023-09-12T09:48:08;98057.53;;;28.80;45.13
34081;BME280;20358;50.272;19.026;2023-09-12T09:51:18;98056.13;;;28.84;45.00
34081;BME280;20358;50.272;19.026;2023-09-12T09:54:28;98058.22;;;28.89;44.99
34081;BME280;20358;50.272;19.026;2023-09-12T09:57:36;98046.22;;;28.92;45.18
34081;BME280;20358;50.272;19.026;2023-09-12T10:00:45;98048.50;;;28.95;45.05
34081;BME280;20358;50.272;19.026;2023-09-12T10:03:58;98051.44;;;29.00;45.00
34081;BME280;20358;50.272;19.026;2023-09-12T10:07:11;98045.66;;;29.03;45.02
34081;BME280;20358;50.272;19.026;2023-09-12T10:10:19;98034.25;;;29.01;45.42
34081;BME280;20358;50.272;19.026;2023-09-12T10:13:27;98043.44;;;29.13;45.22
34081;BME280;20358;50.272;19.026;2023-09-12T10:16:43;98042.19;;;29.15;44.84
34081;BME280;20358;50.272;19.026;2023-09-12T10:19:56;98044.28;;;29.20;44.93
34081;BME280;20358;50.272;19.026;2023-09-12T10:23:25;98045.16;;;29.27;43.78
34081;BME280;20358;50.272;19.026;2023-09-12T10:26:41;98042.69;;;29.25;43.70
34081;BME280;20358;50.272;19.026;2023-09-12T10:29:49;98044.16;;;29.28;43.40
34081;BME280;20358;50.272;19.026;2023-09-12T10:32:58;98037.31;;;29.32;43.24
34081;BME280;20358;50.272;19.026;2023-09-12T10:36:09;98039.00;;;29.33;40.77
34081;BME280;20358;50.272;19.026;2023-09-12T10:39:19;98036.13;;;29.41;40.98
34081;BME280;20358;50.272;19.026;2023-09-12T10:42:28;98029.50;;;29.50;42.16
34081;BME280;20358;50.272;19.026;2023-09-12T10:45:37;98027.06;;;29.62;42.52
34081;BME280;20358;50.272;19.026;2023-09-12T10:48:47;98032.91;;;29.72;42.34
34081;BME280;20358;50.272;19.026;2023-09-12T10:51:57;98031.44;;;29.76;42.45
34081;BME280;20358;50.272;19.026;2023-09-12T10:55:15;98030.22;;;29.78;42.22
34081;BME280;20358;50.272;19.026;2023-09-12T10:58:24;98032.09;;;29.78;42.46
34081;BME280;20358;50.272;19.026;2023-09-12T11:01:33;98043.47;;;29.73;40.77
34081;BME280;20358;50.272;19.026;2023-09-12T11:04:41;98036.63;;;29.77;41.30
34081;BME280;20358;50.272;19.026;2023-09-12T11:07:50;98041.66;;;29.80;40.66
34081;BME280;20358;50.272;19.026;2023-09-12T11:11:20;98038.75;;;29.88;41.45
34081;BME280;20358;50.272;19.026;2023-09-12T11:14:26;98023.03;;;29.98;41.94
34081;BME280;20358;50.272;19.026;2023-09-12T11:17:37;98027.78;;;30.03;41.02
34081;BME280;20358;50.272;19.026;2023-09-12T11:20:51;98029.03;;;30.07;41.38
34081;BME280;20358;50.272;19.026;2023-09-12T11:24:00;98035.47;;;30.13;39.70
34081;BME280;20358;50.272;19.026;2023-09-12T11:27:10;98031.75;;;30.14;38.51
34081;BME280;20358;50.272;19.026;2023-09-12T11:30:18;98024.66;;;29.99;38.48
34081;BME280;20358;50.272;19.026;2023-09-12T11:33:25;98022.19;;;30.11;38.99
34081;BME280;20358;50.272;19.026;2023-09-12T11:36:38;98020.53;;;30.23;39.87
34081;BME280;20358;50.272;19.026;2023-09-12T11:39:46;98022.19;;;30.31;39.24
34081;BME280;20358;50.272;19.026;2023-09-12T11:42:56;98026.34;;;30.33;38.32
34081;BME280;20358;50.272;19.026;2023-09-12T11:46:06;98016.38;;;30.34;39.56
34081;BME280;20358;50.272;19.026;2023-09-12T11:49:15;98026.34;;;30.27;40.25
34081;BME280;20358;50.272;19.026;2023-09-12T11:52:22;98016.78;;;30.18;40.61
34081;BME280;20358;50.272;19.026;2023-09-12T11:55:31;98011.81;;;30.08;40.25
34081;BME280;20358;50.272;19.026;2023-09-12T11:58:43;98003.09;;;29.99;39.80
34081;BME280;20358;50.272;19.026;2023-09-12T12:01:50;97996.88;;;29.92;40.90
34081;BME280;20358;50.272;19.026;2023-09-12T12:04:57;98003.69;;;29.88;40.61
34081;BME280;20358;50.272;19.026;2023-09-12T12:08:06;98007.44;;;29.87;38.48
34081;BME280;20358;50.272;19.026;2023-09-12T12:11:33;97998.53;;;30.13;38.61
34081;BME280;20358;50.272;19.026;2023-09-12T12:14:42;98005.81;;;30.26;39.11
34081;BME280;20358;50.272;19.026;2023-09-12T12:17:48;98001.03;;;30.41;38.53
34081;BME280;20358;50.272;19.026;2023-09-12T12:21:00;98003.53;;;30.49;39.15
34081;BME280;20358;50.272;19.026;2023-09-12T12:24:09;97995.44;;;30.55;38.41
34081;BME280;20358;50.272;19.026;2023-09-12T12:27:18;97988.97;;;30.69;38.25
34081;BME280;20358;50.272;19.026;2023-09-12T12:30:31;97990.19;;;30.80;38.81
34081;BME280;20358;50.272;19.026;2023-09-12T12:33:39;97984.78;;;30.80;39.23
34081;BME280;20358;50.272;19.026;2023-09-12T12:37:05;97991.44;;;30.78;39.75
34081;BME280;20358;50.272;19.026;2023-09-12T12:40:13;97984.41;;;30.70;39.34
34081;BME280;20358;50.272;19.026;2023-09-12T12:43:20;97989.34;;;30.86;38.22
34081;BME280;20358;50.272;19.026;2023-09-12T12:46:30;97978.06;;;31.09;37.72
34081;BME280;20358;50.272;19.026;2023-09-12T12:49:39;97994.59;;;31.32;37.00
34081;BME280;20358;50.272;19.026;2023-09-12T12:52:50;97992.44;;;31.54;36.64
34081;BME280;20358;50.272;19.026;2023-09-12T12:55:56;97989.44;;;31.68;36.18
34081;BME280;20358;50.272;19.026;2023-09-12T12:59:07;98000.22;;;31.75;35.72
34081;BME280;20358;50.272;19.026;2023-09-12T13:02:16;97991.00;;;31.82;35.82
34081;BME280;20358;50.272;19.026;2023-09-12T13:05:26;97987.31;;;31.77;35.33
34081;BME280;20358;50.272;19.026;2023-09-12T13:08:33;97992.19;;;31.93;35.89
34081;BME280;20358;50.272;19.026;2023-09-12T13:11:40;97986.72;;;32.06;35.77
34081;BME280;20358;50.272;19.026;2023-09-12T13:14:46;97983.25;;;32.17;35.42
34081;BME280;20358;50.272;19.026;2023-09-12T13:17:56;97976.91;;;32.30;35.39
34081;BME280;20358;50.272;19.026;2023-09-12T13:21:04;97978.97;;;32.34;34.94
34081;BME280;20358;50.272;19.026;2023-09-12T13:24:12;97990.06;;;32.26;34.58
34081;BME280;20358;50.272;19.026;2023-09-12T13:27:18;97983.69;;;32.14;34.52
34081;BME280;20358;50.272;19.026;2023-09-12T13:30:26;97988.50;;;32.12;34.66
34081;BME280;20358;50.272;19.026;2023-09-12T13:33:35;97981.91;;;32.08;34.70
34081;BME280;20358;50.272;19.026;2023-09-12T13:36:43;97977.56;;;32.25;35.23
34081;BME280;20358;50.272;19.026;2023-09-12T13:40:04;97971.75;;;32.46;35.26
34081;BME280;20358;50.272;19.026;2023-09-12T13:43:13;97968.97;;;32.60;34.76
34081;BME280;20358;50.272;19.026;2023-09-12T13:46:19;97980.63;;;32.60;33.91
34081;BME280;20358;50.272;19.026;2023-09-12T13:49:29;97969.09;;;32.65;34.30
34081;BME280;20358;50.272;19.026;2023-09-12T13:52:35;97957.09;;;32.61;33.72
34081;BME280;20358;50.272;19.026;2023-09-12T13:55:42;97975.34;;;32.65;33.51
34081;BME280;20358;50.272;19.026;2023-09-12T13:59:08;97971.91;;;32.76;33.84
34081;BME280;20358;50.272;19.026;2023-09-12T14:02:16;97970.94;;;32.89;33.85
34081;BME280;20358;50.272;19.026;2023-09-12T14:05:26;97959.16;;;32.95;33.38
34081;BME280;20358;50.272;19.026;2023-09-12T14:08:36;97972.34;;;32.91;32.66
34081;BME280;20358;50.272;19.026;2023-09-12T14:11:43;97970.22;;;32.57;33.13
34081;BME280;20358;50.272;19.026;2023-09-12T14:14:51;97969.63;;;32.55;33.31
34081;BME280;20358;50.272;19.026;2023-09-12T14:18:11;97975.41;;;32.59;33.25
34081;BME280;20358;50.272;19.026;2023-09-12T14:21:21;97976.63;;;32.63;33.40
34081;BME280;20358;50.272;19.026;2023-09-12T14:24:28;97984.59;;;32.58;33.29
34081;BME280;20358;50.272;19.026;2023-09-12T14:27:35;97987.75;;;32.48;32.86
34081;BME280;20358;50.272;19.026;2023-09-12T14:30:42;97988.00;;;32.46;32.36
34081;BME280;20358;50.272;19.026;2023-09-12T14:33:49;97983.47;;;32.40;32.72
34081;BME280;20358;50.272;19.026;2023-09-12T14:36:59;97982.44;;;32.41;33.09
34081;BME280;20358;50.272;19.026;2023-09-12T14:40:12;97988.06;;;32.40;33.17
34081;BME280;20358;50.272;19.026;2023-09-12T14:43:19;97986.00;;;32.35;33.68
34081;BME280;20358;50.272;19.026;2023-09-12T14:46:27;97987.28;;;32.33;33.58
34081;BME280;20358;50.272;19.026;2023-09-12T14:49:33;97986.28;;;32.27;33.76
34081;BME280;20358;50.272;19.026;2023-09-12T14:52:53;97983.00;;;32.25;34.13
34081;BME280;20358;50.272;19.026;2023-09-12T14:55:59;97985.69;;;32.25;33.97
34081;BME280;20358;50.272;19.026;2023-09-12T14:59:06;97982.81;;;32.20;34.04
34081;BME280;20358;50.272;19.026;2023-09-12T15:02:12;97979.97;;;32.15;34.25
34081;BME280;20358;50.272;19.026;2023-09-12T15:05:20;97985.38;;;32.15;33.43
34081;BME280;20358;50.272;19.026;2023-09-12T15:08:29;97975.75;;;32.19;33.67
34081;BME280;20358;50.272;19.026;2023-09-12T15:11:37;97976.97;;;32.23;33.46
34081;BME280;20358;50.272;19.026;2023-09-12T15:14:43;97973.41;;;32.29;33.41
34081;BME280;20358;50.272;19.026;2023-09-12T15:17:50;97977.47;;;32.38;33.67
34081;BME280;20358;50.272;19.026;2023-09-12T15:20:57;97984.69;;;32.44;33.24
34081;BME280;20358;50.272;19.026;2023-09-12T15:24:11;97984.69;;;32.44;33.34
34081;BME280;20358;50.272;19.026;2023-09-12T15:27:18;97980.47;;;32.48;33.33
34081;BME280;20358;50.272;19.026;2023-09-12T15:30:26;97976.94;;;32.48;33.51
34081;BME280;20358;50.272;19.026;2023-09-12T15:33:33;97975.31;;;32.47;33.72
34081;BME280;20358;50.272;19.026;2023-09-12T15:36:43;97974.22;;;32.55;34.08
34081;BME280;20358;50.272;19.026;2023-09-12T15:39:54;97974.53;;;32.65;33.56
34081;BME280;20358;50.272;19.026;2023-09-12T15:43:02;97964.44;;;32.72;33.53
34081;BME280;20358;50.272;19.026;2023-09-12T15:46:24;97979.94;;;32.65;33.37
34081;BME280;20358;50.272;19.026;2023-09-12T15:49:38;97975.84;;;32.56;33.58
34081;BME280;20358;50.272;19.026;2023-09-12T15:52:44;97979.72;;;32.41;33.90
34081;BME280;20358;50.272;19.026;2023-09-12T15:55:56;97977.28;;;32.33;34.13
34081;BME280;20358;50.272;19.026;2023-09-12T15:59:03;97974.44;;;32.28;34.36
34081;BME280;20358;50.272;19.026;2023-09-12T16:02:10;97980.28;;;32.25;34.76
34081;BME280;20358;50.272;19.026;2023-09-12T16:05:17;97975.31;;;32.22;34.94
34081;BME280;20358;50.272;19.026;2023-09-12T16:08:24;97969.53;;;32.19;35.10
34081;BME280;20358;50.272;19.026;2023-09-12T16:11:34;97973.03;;;32.19;35.33
34081;BME280;20358;50.272;19.026;2023-09-12T16:14:42;97964.31;;;32.17;35.22
34081;BME280;20358;50.272;19.026;2023-09-12T16:17:49;97977.84;;;32.17;35.68
34081;BME280;20358;50.272;19.026;2023-09-12T16:20:57;97975.38;;;32.16;35.39
34081;BME280;20358;50.272;19.026;2023-09-12T16:24:09;97969.22;;;32.09;35.19
34081;BME280;20358;50.272;19.026;2023-09-12T16:27:19;97970.91;;;32.03;35.88
34081;BME280;20358;50.272;19.026;2023-09-12T16:30:26;97970.09;;;31.96;36.29